Αναφορές METAR Αεροδρομίων

 

LGTS - THESSALONIKI - GREECE
Ενημερώθηκε: 18/01/2019 13:20
Αραιές Νεφώσεις
Αραιές Νεφώσεις
 Ανεμος από varies
Ανεμος: varies 6 km/h
Θερμοκρασία: 6°C
Σημείο Δρόσου: 2°C
Υγρασία: 76%
Βαρόμετρο: 1018 hPa
Clouds: Αραιές Νεφώσεις
Visibility: 8 km
Cloud details: Αραιές Νεφώσεις 122 m
2019/01/18 11:20 LGTS 181120Z VRB03KT 8000 FEW004 06/02 Q1018 NOSIG
LGLR - LARTISA - GREECE
Ενημερώθηκε: 18/01/2019 12:50
Αραιές Νεφώσεις
Αραιές Νεφώσεις
 Ανεμος από calm
Ανεμος: Απνοια
Θερμοκρασία: 8°C
Σημείο Δρόσου: 0°C
Υγρασία: 57%
Βαρόμετρο: 1018 hPa
Clouds: Αραιές Νεφώσεις
Visibility: 10 km
Cloud details: Αραιές Νεφώσεις 2438 m
2019/01/18 10:50 LGLR 181050Z 00000KT 9999 FEW080 08/00 Q1018 RMK SCT180 BLU
 
LGKZ - KOZANI - GREECE
Ενημερώθηκε: 18/01/2019 12:50
Μερικώς νεφελώδης
Μερικώς νεφελώδης
 Ανεμος από calm
Ανεμος: Απνοια
Θερμοκρασία: 7°C
Σημείο Δρόσου: -4°C
Υγρασία: 46%
Βαρόμετρο: 1017 hPa
Clouds: Μερικώς νεφελώδης
Visibility: 10 km
Cloud details: Μερικώς νεφελώδης 2134 m
2019/01/18 10:50 LGKZ 181050Z 00000KT 9999 SCT070 07/M04 Q1017
LGKV - KAVALA - GREECE
Ενημερώθηκε: 18/01/2019 13:20
Αραιές Νεφώσεις
Αραιές Νεφώσεις
 Ανεμος από Δ
Ανεμος: Δ 15 km/h
Θερμοκρασία: 11°C
Σημείο Δρόσου: 1°C
Υγρασία: 50%
Βαρόμετρο: 1017 hPa
Clouds: Αραιές Νεφώσεις
Visibility: 10 km
Cloud details: Αραιές Νεφώσεις 549 m
2019/01/18 11:20 LGKV 181120Z 28008KT 9999 FEW018 11/01 Q1017
 
LGIO - IOANNINA - GREECE
Ενημερώθηκε: 18/01/2019 13:20
Συννεφιά
Συννεφιά
 Ανεμος από varies
Ανεμος: varies 0 km/h
Θερμοκρασία: 5°C
Σημείο Δρόσου: 3°C
Υγρασία: 87%
Βαρόμετρο: 1018 hPa
Clouds: Συννεφιά
Visibility: 10 km
Cloud details: Αραιές Νεφώσεις 122 m
Σχεδόν νεφελώδης 914 m
Συννεφιά 1829 m
2019/01/18 11:20 LGIO 181120Z /////KT 9999 FEW004 BKN030 OVC060 05/03 Q1018
LGBL - BOLOS - GREECE
Ενημερώθηκε: 18/01/2019 13:20
Αραιές Νεφώσεις
Αραιές Νεφώσεις
 Ανεμος από calm
Ανεμος: Απνοια
Θερμοκρασία: 14°C
Σημείο Δρόσου: 1°C
Υγρασία: 41%
Βαρόμετρο: 1017 hPa
Clouds: Αραιές Νεφώσεις
Visibility: 10 km
Cloud details: Αραιές Νεφώσεις 914 m
2019/01/18 11:20 LGBL 181120Z 00000KT 9999 FEW030 14/01 Q1017
 
LGMT - MITILINI - GREECE
Ενημερώθηκε: 18/01/2019 13:20
Αραιές Νεφώσεις
Αραιές Νεφώσεις
 Ανεμος από ΝΝΑ
Ανεμος: ΝΝΑ 19 km/h
Θερμοκρασία: 13°C
Σημείο Δρόσου: 4°C
Υγρασία: 55%
Βαρόμετρο: 1019 hPa
Clouds: Αραιές Νεφώσεις
Visibility: 10 km
Cloud details: Αραιές Νεφώσεις 610 m
2019/01/18 11:20 LGMT 181120Z 15010KT 100V220 9999 FEW020 13/04 Q1019
LGAV - ATHENS - GREECE
Ενημερώθηκε: 18/01/2019 13:20
Αραιές Νεφώσεις
Αραιές Νεφώσεις
 Ανεμος από ΝΔ
Ανεμος: ΝΔ 17 km/h
Θερμοκρασία: 15°C
Σημείο Δρόσου: 5°C
Υγρασία: 51%
Βαρόμετρο: 1018 hPa
Clouds: Αραιές Νεφώσεις
Visibility: 10 km
Cloud details: Αραιές Νεφώσεις 914 m
2019/01/18 11:20 LGAV 181120Z 23009KT 9999 FEW030 15/05 Q1018 NOSIG
 
LGRP - RODOS - GREECE
Ενημερώθηκε: 18/01/2019 13:20
Μερικώς νεφελώδης
Μερικώς νεφελώδης
 Ανεμος από ΔΝΔ
Ανεμος: ΔΝΔ 6 km/h
Θερμοκρασία: 16°C
Σημείο Δρόσου: 8°C
Υγρασία: 59%
Βαρόμετρο: 1020 hPa
Clouds: Μερικώς νεφελώδης
Visibility: 10 km
Cloud details: Αραιές Νεφώσεις 610 m
Μερικώς νεφελώδης 762 m
2019/01/18 11:20 LGRP 181120Z 24003KT 9999 FEW020 SCT025 16/08 Q1020 NOSIG
LGIR - HRAKLIO/KRITI - GREECE
Ενημερώθηκε: 18/01/2019 13:20
Μερικώς νεφελώδης
Μερικώς νεφελώδης
 Ανεμος από varies
Ανεμος: varies 6 km/h
Θερμοκρασία: 14°C
Σημείο Δρόσου: 11°C
Υγρασία: 82%
Βαρόμετρο: 1021 hPa
Clouds: Μερικώς νεφελώδης
Visibility: 10 km
Cloud details: Μερικώς νεφελώδης 762 m
2019/01/18 11:20 LGIR 181120Z VRB03KT 9999 SCT025 14/11 Q1021 NOSIG
 
LGMK - MIKONOS - GREECE
Ενημερώθηκε: 18/01/2019 13:20
Αραιές Νεφώσεις
Αραιές Νεφώσεις
 Ανεμος από ΝΝΔ
Ανεμος: ΝΝΔ 26 km/h
Θερμοκρασία: 15°C
Σημείο Δρόσου: 8°C
Υγρασία: 63%
Βαρόμετρο: 1018 hPa
Clouds: Αραιές Νεφώσεις
Visibility: 10 km
Cloud details: Αραιές Νεφώσεις 762 m
2019/01/18 11:20 LGMK 181120Z 20014KT 9999 FEW025 15/08 Q1018
LGKR - KERKIRA - GREECE
Ενημερώθηκε: 18/01/2019 13:20
Ασθενής βροχή, Σχεδόν νεφελώδης
Ασθενής βροχή, Σχεδόν νεφελώδης
 Ανεμος από ΝΑ
Ανεμος: ΝΑ 20 km/h
Θερμοκρασία: 12°C
Σημείο Δρόσου: 10°C
Υγρασία: 88%
Βαρόμετρο: 1018 hPa
Περίληψη: Ασθενής βροχή
Clouds: Σχεδόν νεφελώδης
Visibility: 6 km
Cloud details: Μερικώς νεφελώδης 457 m
Σχεδόν νεφελώδης 762 m
Σχεδόν νεφελώδης 2438 m
2019/01/18 11:20 LGKR 181120Z 14011KT 6000 -RA SCT015 BKN025 BKN080 12/10 Q1018 NOSIG